sensor_id;sensor_type;location;lat;lon;timestamp;P1;durP1;ratioP1;P2;durP2;ratioP2
12908;SDS011;6522;49.622;6.126;2023-07-30T00:00:07;6.93;;;4.50;;
12908;SDS011;6522;49.622;6.126;2023-07-30T00:02:54;6.13;;;5.40;;
12908;SDS011;6522;49.622;6.126;2023-07-30T00:05:41;5.30;;;4.80;;
12908;SDS011;6522;49.622;6.126;2023-07-30T00:08:28;6.43;;;5.10;;
12908;SDS011;6522;49.622;6.126;2023-07-30T00:11:14;6.18;;;4.80;;
12908;SDS011;6522;49.622;6.126;2023-07-30T00:14:01;5.32;;;4.32;;
12908;SDS011;6522;49.622;6.126;2023-07-30T00:16:47;4.32;;;3.92;;
12908;SDS011;6522;49.622;6.126;2023-07-30T00:19:34;5.80;;;5.30;;
12908;SDS011;6522;49.622;6.126;2023-07-30T00:22:21;5.00;;;3.78;;
12908;SDS011;6522;49.622;6.126;2023-07-30T00:25:08;5.07;;;4.30;;
12908;SDS011;6522;49.622;6.126;2023-07-30T00:27:55;4.70;;;4.30;;
12908;SDS011;6522;49.622;6.126;2023-07-30T00:30:42;4.20;;;3.80;;
12908;SDS011;6522;49.622;6.126;2023-07-30T00:33:28;5.27;;;4.77;;
12908;SDS011;6522;49.622;6.126;2023-07-30T00:36:15;4.78;;;4.20;;
12908;SDS011;6522;49.622;6.126;2023-07-30T00:39:02;4.53;;;4.12;;
12908;SDS011;6522;49.622;6.126;2023-07-30T00:41:49;5.10;;;4.13;;
12908;SDS011;6522;49.622;6.126;2023-07-30T00:44:36;7.57;;;4.50;;
12908;SDS011;6522;49.622;6.126;2023-07-30T00:47:22;5.10;;;4.60;;
12908;SDS011;6522;49.622;6.126;2023-07-30T00:50:09;4.95;;;4.35;;
12908;SDS011;6522;49.622;6.126;2023-07-30T00:52:56;6.33;;;4.40;;
12908;SDS011;6522;49.622;6.126;2023-07-30T00:55:43;4.90;;;3.60;;
12908;SDS011;6522;49.622;6.126;2023-07-30T00:58:30;5.95;;;4.35;;
12908;SDS011;6522;49.622;6.126;2023-07-30T01:01:17;5.90;;;4.20;;
12908;SDS011;6522;49.622;6.126;2023-07-30T01:04:04;5.50;;;5.00;;
12908;SDS011;6522;49.622;6.126;2023-07-30T01:06:51;6.60;;;4.30;;
12908;SDS011;6522;49.622;6.126;2023-07-30T01:09:37;5.12;;;4.03;;
12908;SDS011;6522;49.622;6.126;2023-07-30T01:12:24;7.03;;;5.47;;
12908;SDS011;6522;49.622;6.126;2023-07-30T01:15:11;6.72;;;5.00;;
12908;SDS011;6522;49.622;6.126;2023-07-30T01:17:57;6.15;;;4.45;;
12908;SDS011;6522;49.622;6.126;2023-07-30T01:20:45;6.32;;;5.40;;
12908;SDS011;6522;49.622;6.126;2023-07-30T01:23:32;7.20;;;5.25;;
12908;SDS011;6522;49.622;6.126;2023-07-30T01:26:19;6.03;;;4.78;;
12908;SDS011;6522;49.622;6.126;2023-07-30T01:29:07;6.35;;;5.00;;
12908;SDS011;6522;49.622;6.126;2023-07-30T01:31:54;6.37;;;5.10;;
12908;SDS011;6522;49.622;6.126;2023-07-30T01:34:39;4.82;;;4.32;;
12908;SDS011;6522;49.622;6.126;2023-07-30T01:37:26;6.78;;;5.03;;
12908;SDS011;6522;49.622;6.126;2023-07-30T01:40:13;8.57;;;5.90;;
12908;SDS011;6522;49.622;6.126;2023-07-30T01:43:00;9.45;;;5.93;;
12908;SDS011;6522;49.622;6.126;2023-07-30T01:45:46;6.65;;;6.03;;
12908;SDS011;6522;49.622;6.126;2023-07-30T01:48:33;7.80;;;5.63;;
12908;SDS011;6522;49.622;6.126;2023-07-30T01:51:19;7.43;;;5.78;;
12908;SDS011;6522;49.622;6.126;2023-07-30T01:54:06;7.45;;;5.97;;
12908;SDS011;6522;49.622;6.126;2023-07-30T01:56:53;6.85;;;5.93;;
12908;SDS011;6522;49.622;6.126;2023-07-30T01:59:40;7.45;;;6.05;;
12908;SDS011;6522;49.622;6.126;2023-07-30T02:02:27;8.48;;;6.07;;
12908;SDS011;6522;49.622;6.126;2023-07-30T02:05:14;7.72;;;5.93;;
12908;SDS011;6522;49.622;6.126;2023-07-30T02:08:00;6.03;;;5.20;;
12908;SDS011;6522;49.622;6.126;2023-07-30T02:10:59;6.12;;;5.47;;
12908;SDS011;6522;49.622;6.126;2023-07-30T02:13:46;5.97;;;5.37;;
12908;SDS011;6522;49.622;6.126;2023-07-30T02:16:32;5.65;;;4.85;;
12908;SDS011;6522;49.622;6.126;2023-07-30T02:19:19;6.37;;;4.80;;
12908;SDS011;6522;49.622;6.126;2023-07-30T02:22:06;7.60;;;4.85;;
12908;SDS011;6522;49.622;6.126;2023-07-30T02:24:52;7.60;;;5.65;;
12908;SDS011;6522;49.622;6.126;2023-07-30T02:27:39;6.60;;;4.87;;
12908;SDS011;6522;49.622;6.126;2023-07-30T02:30:26;7.65;;;5.07;;
12908;SDS011;6522;49.622;6.126;2023-07-30T02:33:13;6.25;;;4.93;;
12908;SDS011;6522;49.622;6.126;2023-07-30T02:35:59;7.78;;;5.25;;
12908;SDS011;6522;49.622;6.126;2023-07-30T02:38:46;5.28;;;4.70;;
12908;SDS011;6522;49.622;6.126;2023-07-30T02:41:33;8.35;;;5.50;;
12908;SDS011;6522;49.622;6.126;2023-07-30T02:44:19;8.95;;;5.50;;
12908;SDS011;6522;49.622;6.126;2023-07-30T02:47:06;7.05;;;6.32;;
12908;SDS011;6522;49.622;6.126;2023-07-30T02:49:53;8.65;;;5.20;;
12908;SDS011;6522;49.622;6.126;2023-07-30T02:52:39;9.82;;;5.57;;
12908;SDS011;6522;49.622;6.126;2023-07-30T02:55:26;6.18;;;5.50;;
12908;SDS011;6522;49.622;6.126;2023-07-30T02:58:13;7.40;;;5.68;;
12908;SDS011;6522;49.622;6.126;2023-07-30T03:01:09;8.55;;;5.55;;
12908;SDS011;6522;49.622;6.126;2023-07-30T03:03:55;9.60;;;5.55;;
12908;SDS011;6522;49.622;6.126;2023-07-30T03:06:42;7.05;;;6.20;;
12908;SDS011;6522;49.622;6.126;2023-07-30T03:09:29;7.85;;;4.93;;
12908;SDS011;6522;49.622;6.126;2023-07-30T03:12:15;7.50;;;6.37;;
12908;SDS011;6522;49.622;6.126;2023-07-30T03:15:02;7.75;;;6.00;;
12908;SDS011;6522;49.622;6.126;2023-07-30T03:17:49;13.82;;;6.00;;
12908;SDS011;6522;49.622;6.126;2023-07-30T03:20:37;7.65;;;6.35;;
12908;SDS011;6522;49.622;6.126;2023-07-30T03:23:23;7.25;;;5.85;;
12908;SDS011;6522;49.622;6.126;2023-07-30T03:26:10;8.57;;;6.03;;
12908;SDS011;6522;49.622;6.126;2023-07-30T03:28:57;6.22;;;5.00;;
12908;SDS011;6522;49.622;6.126;2023-07-30T03:31:44;6.68;;;5.87;;
12908;SDS011;6522;49.622;6.126;2023-07-30T03:34:30;8.40;;;5.68;;
12908;SDS011;6522;49.622;6.126;2023-07-30T03:37:17;5.80;;;5.20;;
12908;SDS011;6522;49.622;6.126;2023-07-30T03:40:04;6.80;;;6.15;;
12908;SDS011;6522;49.622;6.126;2023-07-30T03:42:51;9.35;;;7.62;;
12908;SDS011;6522;49.622;6.126;2023-07-30T03:45:38;7.93;;;4.55;;
12908;SDS011;6522;49.622;6.126;2023-07-30T03:48:25;4.55;;;4.07;;
12908;SDS011;6522;49.622;6.126;2023-07-30T03:51:12;5.22;;;4.60;;
12908;SDS011;6522;49.622;6.126;2023-07-30T03:53:58;7.32;;;5.20;;
12908;SDS011;6522;49.622;6.126;2023-07-30T03:56:46;10.50;;;5.57;;
12908;SDS011;6522;49.622;6.126;2023-07-30T03:59:32;10.57;;;6.18;;
12908;SDS011;6522;49.622;6.126;2023-07-30T04:02:19;7.25;;;5.97;;
12908;SDS011;6522;49.622;6.126;2023-07-30T04:05:06;5.85;;;5.35;;
12908;SDS011;6522;49.622;6.126;2023-07-30T04:07:52;7.45;;;6.18;;
12908;SDS011;6522;49.622;6.126;2023-07-30T04:10:39;6.45;;;5.70;;
12908;SDS011;6522;49.622;6.126;2023-07-30T04:13:26;6.62;;;5.80;;
12908;SDS011;6522;49.622;6.126;2023-07-30T04:16:13;1.80;;;1.70;;
12908;SDS011;6522;49.622;6.126;2023-07-30T04:18:59;1.90;;;1.80;;
12908;SDS011;6522;49.622;6.126;2023-07-30T04:21:46;1.95;;;1.85;;
12908;SDS011;6522;49.622;6.126;2023-07-30T04:24:33;2.10;;;2.00;;
12908;SDS011;6522;49.622;6.126;2023-07-30T04:27:19;1.80;;;1.70;;
12908;SDS011;6522;49.622;6.126;2023-07-30T04:30:06;1.60;;;1.50;;
12908;SDS011;6522;49.622;6.126;2023-07-30T04:32:53;1.80;;;1.70;;
12908;SDS011;6522;49.622;6.126;2023-07-30T04:35:40;1.80;;;1.70;;
12908;SDS011;6522;49.622;6.126;2023-07-30T04:38:27;1.70;;;1.60;;
12908;SDS011;6522;49.622;6.126;2023-07-30T04:41:13;2.10;;;2.00;;
12908;SDS011;6522;49.622;6.126;2023-07-30T04:44:00;1.70;;;1.60;;
12908;SDS011;6522;49.622;6.126;2023-07-30T04:46:47;1.70;;;1.60;;
12908;SDS011;6522;49.622;6.126;2023-07-30T04:49:33;1.70;;;1.60;;
12908;SDS011;6522;49.622;6.126;2023-07-30T04:52:20;1.70;;;1.60;;
12908;SDS011;6522;49.622;6.126;2023-07-30T04:55:07;1.65;;;1.55;;
12908;SDS011;6522;49.622;6.126;2023-07-30T04:57:54;1.60;;;1.50;;
12908;SDS011;6522;49.622;6.126;2023-07-30T05:00:41;1.50;;;1.40;;
12908;SDS011;6522;49.622;6.126;2023-07-30T05:03:28;1.60;;;1.50;;
12908;SDS011;6522;49.622;6.126;2023-07-30T05:06:14;1.50;;;1.40;;
12908;SDS011;6522;49.622;6.126;2023-07-30T05:09:01;1.58;;;1.48;;
12908;SDS011;6522;49.622;6.126;2023-07-30T05:11:47;1.48;;;1.37;;
12908;SDS011;6522;49.622;6.126;2023-07-30T05:14:34;1.40;;;1.30;;
12908;SDS011;6522;49.622;6.126;2023-07-30T05:17:21;1.30;;;1.20;;
12908;SDS011;6522;49.622;6.126;2023-07-30T05:20:08;6.90;;;6.30;;
12908;SDS011;6522;49.622;6.126;2023-07-30T05:22:55;6.40;;;5.75;;
12908;SDS011;6522;49.622;6.126;2023-07-30T05:25:42;4.78;;;4.37;;
12908;SDS011;6522;49.622;6.126;2023-07-30T05:28:29;5.60;;;4.60;;
12908;SDS011;6522;49.622;6.126;2023-07-30T05:31:16;4.55;;;4.15;;
12908;SDS011;6522;49.622;6.126;2023-07-30T05:34:03;4.22;;;3.92;;
12908;SDS011;6522;49.622;6.126;2023-07-30T05:36:49;3.50;;;3.20;;
12908;SDS011;6522;49.622;6.126;2023-07-30T05:39:36;3.47;;;3.22;;
12908;SDS011;6522;49.622;6.126;2023-07-30T05:42:23;3.17;;;2.50;;
12908;SDS011;6522;49.622;6.126;2023-07-30T05:45:10;3.92;;;3.62;;
12908;SDS011;6522;49.622;6.126;2023-07-30T05:47:57;3.75;;;3.45;;
12908;SDS011;6522;49.622;6.126;2023-07-30T05:50:44;5.47;;;3.28;;
12908;SDS011;6522;49.622;6.126;2023-07-30T05:53:31;4.82;;;3.08;;
12908;SDS011;6522;49.622;6.126;2023-07-30T05:56:17;2.90;;;2.70;;
12908;SDS011;6522;49.622;6.126;2023-07-30T05:59:04;4.10;;;3.80;;
12908;SDS011;6522;49.622;6.126;2023-07-30T06:01:51;3.72;;;3.28;;
12908;SDS011;6522;49.622;6.126;2023-07-30T06:04:38;3.22;;;2.92;;
12908;SDS011;6522;49.622;6.126;2023-07-30T06:07:25;4.55;;;3.35;;
12908;SDS011;6522;49.622;6.126;2023-07-30T06:10:12;3.75;;;3.45;;
12908;SDS011;6522;49.622;6.126;2023-07-30T06:12:59;3.95;;;3.60;;
12908;SDS011;6522;49.622;6.126;2023-07-30T06:15:46;3.30;;;3.00;;
12908;SDS011;6522;49.622;6.126;2023-07-30T06:18:33;3.47;;;3.17;;
12908;SDS011;6522;49.622;6.126;2023-07-30T06:21:20;3.37;;;3.00;;
12908;SDS011;6522;49.622;6.126;2023-07-30T06:24:07;3.62;;;3.30;;
12908;SDS011;6522;49.622;6.126;2023-07-30T06:26:54;4.32;;;3.35;;
12908;SDS011;6522;49.622;6.126;2023-07-30T06:29:40;7.47;;;3.83;;
12908;SDS011;6522;49.622;6.126;2023-07-30T06:32:27;6.62;;;3.67;;
12908;SDS011;6522;49.622;6.126;2023-07-30T06:35:14;3.85;;;3.50;;
12908;SDS011;6522;49.622;6.126;2023-07-30T06:38:00;3.95;;;3.08;;
12908;SDS011;6522;49.622;6.126;2023-07-30T06:40:47;3.97;;;3.30;;
12908;SDS011;6522;49.622;6.126;2023-07-30T06:43:34;3.67;;;3.37;;
12908;SDS011;6522;49.622;6.126;2023-07-30T06:46:21;5.03;;;3.10;;
12908;SDS011;6522;49.622;6.126;2023-07-30T06:49:07;5.05;;;3.95;;
12908;SDS011;6522;49.622;6.126;2023-07-30T06:51:54;4.47;;;3.33;;
12908;SDS011;6522;49.622;6.126;2023-07-30T06:54:41;2.75;;;2.55;;
12908;SDS011;6522;49.622;6.126;2023-07-30T06:57:27;5.62;;;2.58;;
12908;SDS011;6522;49.622;6.126;2023-07-30T07:00:14;3.17;;;2.10;;
12908;SDS011;6522;49.622;6.126;2023-07-30T07:03:01;3.45;;;3.12;;
12908;SDS011;6522;49.622;6.126;2023-07-30T07:05:54;4.55;;;3.60;;
12908;SDS011;6522;49.622;6.126;2023-07-30T07:08:41;4.10;;;2.15;;
12908;SDS011;6522;49.622;6.126;2023-07-30T07:11:27;7.40;;;2.78;;
12908;SDS011;6522;49.622;6.126;2023-07-30T07:14:14;3.58;;;2.20;;
12908;SDS011;6522;49.622;6.126;2023-07-30T07:17:01;5.07;;;2.50;;
12908;SDS011;6522;49.622;6.126;2023-07-30T07:19:48;5.47;;;3.70;;
12908;SDS011;6522;49.622;6.126;2023-07-30T07:22:35;4.37;;;3.97;;
12908;SDS011;6522;49.622;6.126;2023-07-30T07:25:22;4.12;;;3.72;;
12908;SDS011;6522;49.622;6.126;2023-07-30T07:28:08;5.78;;;3.90;;
12908;SDS011;6522;49.622;6.126;2023-07-30T07:30:55;5.12;;;4.22;;
12908;SDS011;6522;49.622;6.126;2023-07-30T07:33:44;4.15;;;3.80;;
12908;SDS011;6522;49.622;6.126;2023-07-30T07:36:29;5.60;;;4.30;;
12908;SDS011;6522;49.622;6.126;2023-07-30T07:39:16;13.30;;;5.07;;
12908;SDS011;6522;49.622;6.126;2023-07-30T07:42:02;8.77;;;4.25;;
12908;SDS011;6522;49.622;6.126;2023-07-30T07:44:49;7.35;;;3.50;;
12908;SDS011;6522;49.622;6.126;2023-07-30T07:47:36;5.70;;;3.83;;
12908;SDS011;6522;49.622;6.126;2023-07-30T07:50:23;5.82;;;5.20;;
12908;SDS011;6522;49.622;6.126;2023-07-30T07:53:10;4.97;;;3.95;;
12908;SDS011;6522;49.622;6.126;2023-07-30T07:55:56;4.78;;;4.37;;
12908;SDS011;6522;49.622;6.126;2023-07-30T07:58:43;4.97;;;4.50;;
12908;SDS011;6522;49.622;6.126;2023-07-30T08:01:30;6.00;;;5.32;;
12908;SDS011;6522;49.622;6.126;2023-07-30T08:04:16;9.93;;;5.65;;
12908;SDS011;6522;49.622;6.126;2023-07-30T08:07:03;9.02;;;5.78;;
12908;SDS011;6522;49.622;6.126;2023-07-30T08:09:50;7.97;;;5.50;;
12908;SDS011;6522;49.622;6.126;2023-07-30T08:12:36;5.40;;;5.00;;
12908;SDS011;6522;49.622;6.126;2023-07-30T08:15:23;7.53;;;5.30;;
12908;SDS011;6522;49.622;6.126;2023-07-30T08:18:10;5.85;;;5.45;;
12908;SDS011;6522;49.622;6.126;2023-07-30T08:20:57;6.12;;;5.70;;
12908;SDS011;6522;49.622;6.126;2023-07-30T08:23:45;6.35;;;5.78;;
12908;SDS011;6522;49.622;6.126;2023-07-30T08:26:31;7.68;;;5.28;;
12908;SDS011;6522;49.622;6.126;2023-07-30T08:29:17;9.73;;;5.75;;
12908;SDS011;6522;49.622;6.126;2023-07-30T08:32:04;9.27;;;5.70;;
12908;SDS011;6522;49.622;6.126;2023-07-30T08:34:51;5.80;;;5.28;;
12908;SDS011;6522;49.622;6.126;2023-07-30T08:37:38;6.30;;;5.70;;
12908;SDS011;6522;49.622;6.126;2023-07-30T08:40:24;6.25;;;5.65;;
12908;SDS011;6522;49.622;6.126;2023-07-30T08:43:11;5.43;;;4.93;;
12908;SDS011;6522;49.622;6.126;2023-07-30T08:45:59;6.82;;;4.00;;
12908;SDS011;6522;49.622;6.126;2023-07-30T08:48:45;11.38;;;5.93;;
12908;SDS011;6522;49.622;6.126;2023-07-30T08:51:31;6.05;;;5.18;;
12908;SDS011;6522;49.622;6.126;2023-07-30T08:54:18;7.60;;;5.22;;
12908;SDS011;6522;49.622;6.126;2023-07-30T08:57:06;6.70;;;4.70;;
12908;SDS011;6522;49.622;6.126;2023-07-30T08:59:54;4.87;;;4.47;;
12908;SDS011;6522;49.622;6.126;2023-07-30T09:02:41;5.87;;;4.70;;
12908;SDS011;6522;49.622;6.126;2023-07-30T09:05:26;7.72;;;6.93;;
12908;SDS011;6522;49.622;6.126;2023-07-30T09:08:12;8.75;;;6.40;;
12908;SDS011;6522;49.622;6.126;2023-07-30T09:11:09;8.02;;;7.37;;
12908;SDS011;6522;49.622;6.126;2023-07-30T09:13:46;7.40;;;6.87;;
12908;SDS011;6522;49.622;6.126;2023-07-30T09:16:32;7.50;;;6.95;;
12908;SDS011;6522;49.622;6.126;2023-07-30T09:19:19;9.40;;;7.68;;
12908;SDS011;6522;49.622;6.126;2023-07-30T09:22:06;8.15;;;7.55;;
12908;SDS011;6522;49.622;6.126;2023-07-30T09:24:55;10.55;;;7.85;;
12908;SDS011;6522;49.622;6.126;2023-07-30T09:27:39;8.40;;;7.70;;
12908;SDS011;6522;49.622;6.126;2023-07-30T09:30:26;9.50;;;8.70;;
12908;SDS011;6522;49.622;6.126;2023-07-30T09:33:13;12.73;;;7.62;;
12908;SDS011;6522;49.622;6.126;2023-07-30T09:36:03;13.50;;;12.60;;
12908;SDS011;6522;49.622;6.126;2023-07-30T09:38:50;10.82;;;9.30;;
12908;SDS011;6522;49.622;6.126;2023-07-30T09:41:40;10.40;;;9.70;;
12908;SDS011;6522;49.622;6.126;2023-07-30T09:44:23;11.90;;;11.20;;
12908;SDS011;6522;49.622;6.126;2023-07-30T09:47:10;9.70;;;8.90;;
12908;SDS011;6522;49.622;6.126;2023-07-30T09:49:57;9.60;;;8.90;;
12908;SDS011;6522;49.622;6.126;2023-07-30T09:52:44;12.10;;;11.30;;
12908;SDS011;6522;49.622;6.126;2023-07-30T09:55:30;10.70;;;10.00;;
12908;SDS011;6522;49.622;6.126;2023-07-30T09:58:17;11.00;;;10.30;;
12908;SDS011;6522;49.622;6.126;2023-07-30T10:01:04;13.00;;;12.10;;
12908;SDS011;6522;49.622;6.126;2023-07-30T10:03:51;11.75;;;11.00;;
12908;SDS011;6522;49.622;6.126;2023-07-30T10:06:41;13.10;;;12.00;;
12908;SDS011;6522;49.622;6.126;2023-07-30T10:09:28;16.70;;;15.47;;
12908;SDS011;6522;49.622;6.126;2023-07-30T10:12:14;16.23;;;15.50;;
12908;SDS011;6522;49.622;6.126;2023-07-30T10:15:00;15.30;;;14.60;;
12908;SDS011;6522;49.622;6.126;2023-07-30T10:17:47;15.10;;;14.30;;
12908;SDS011;6522;49.622;6.126;2023-07-30T10:20:34;15.73;;;14.80;;
12908;SDS011;6522;49.622;6.126;2023-07-30T10:23:21;13.10;;;12.10;;
12908;SDS011;6522;49.622;6.126;2023-07-30T10:26:11;14.53;;;13.73;;
12908;SDS011;6522;49.622;6.126;2023-07-30T10:29:17;12.90;;;12.00;;
12908;SDS011;6522;49.622;6.126;2023-07-30T10:32:03;12.70;;;11.90;;
12908;SDS011;6522;49.622;6.126;2023-07-30T10:34:50;16.17;;;14.80;;
12908;SDS011;6522;49.622;6.126;2023-07-30T10:37:44;11.55;;;10.85;;
12908;SDS011;6522;49.622;6.126;2023-07-30T10:40:24;12.43;;;11.52;;
12908;SDS011;6522;49.622;6.126;2023-07-30T10:43:17;14.50;;;13.60;;
12908;SDS011;6522;49.622;6.126;2023-07-30T10:46:04;12.55;;;11.60;;
12908;SDS011;6522;49.622;6.126;2023-07-30T10:48:50;12.95;;;12.10;;
12908;SDS011;6522;49.622;6.126;2023-07-30T10:51:37;15.47;;;14.50;;
12908;SDS011;6522;49.622;6.126;2023-07-30T10:54:24;13.50;;;12.70;;
12908;SDS011;6522;49.622;6.126;2023-07-30T10:57:10;14.27;;;13.27;;
12908;SDS011;6522;49.622;6.126;2023-07-30T10:59:58;17.63;;;16.43;;
12908;SDS011;6522;49.622;6.126;2023-07-30T11:02:52;17.00;;;16.10;;
12908;SDS011;6522;49.622;6.126;2023-07-30T11:05:31;16.97;;;15.90;;
12908;SDS011;6522;49.622;6.126;2023-07-30T11:08:18;15.70;;;14.90;;
12908;SDS011;6522;49.622;6.126;2023-07-30T11:11:05;13.80;;;13.00;;
12908;SDS011;6522;49.622;6.126;2023-07-30T11:13:51;15.17;;;14.47;;
12908;SDS011;6522;49.622;6.126;2023-07-30T11:16:39;13.65;;;12.90;;
12908;SDS011;6522;49.622;6.126;2023-07-30T11:19:26;17.13;;;16.13;;
12908;SDS011;6522;49.622;6.126;2023-07-30T11:22:12;14.18;;;13.48;;
12908;SDS011;6522;49.622;6.126;2023-07-30T11:24:59;13.30;;;12.50;;
12908;SDS011;6522;49.622;6.126;2023-07-30T11:27:47;16.60;;;15.50;;
12908;SDS011;6522;49.622;6.126;2023-07-30T11:30:33;13.50;;;12.60;;
12908;SDS011;6522;49.622;6.126;2023-07-30T11:33:20;13.38;;;12.48;;
12908;SDS011;6522;49.622;6.126;2023-07-30T11:36:07;16.10;;;15.00;;
12908;SDS011;6522;49.622;6.126;2023-07-30T11:38:54;13.60;;;12.60;;
12908;SDS011;6522;49.622;6.126;2023-07-30T11:41:41;14.10;;;13.10;;
12908;SDS011;6522;49.622;6.126;2023-07-30T11:44:31;15.97;;;15.13;;
12908;SDS011;6522;49.622;6.126;2023-07-30T11:47:21;14.10;;;13.07;;
12908;SDS011;6522;49.622;6.126;2023-07-30T11:50:07;15.67;;;14.80;;
12908;SDS011;6522;49.622;6.126;2023-07-30T11:52:54;13.80;;;12.90;;
12908;SDS011;6522;49.622;6.126;2023-07-30T11:55:40;15.80;;;14.90;;
12908;SDS011;6522;49.622;6.126;2023-07-30T11:58:28;12.98;;;12.07;;
12908;SDS011;6522;49.622;6.126;2023-07-30T12:01:16;12.90;;;12.10;;
12908;SDS011;6522;49.622;6.126;2023-07-30T12:04:04;15.30;;;14.60;;
12908;SDS011;6522;49.622;6.126;2023-07-30T12:06:51;13.48;;;12.68;;
12908;SDS011;6522;49.622;6.126;2023-07-30T12:09:40;16.10;;;15.27;;
12908;SDS011;6522;49.622;6.126;2023-07-30T12:12:27;12.95;;;12.07;;
12908;SDS011;6522;49.622;6.126;2023-07-30T12:15:13;15.87;;;14.73;;
12908;SDS011;6522;49.622;6.126;2023-07-30T12:18:00;12.20;;;11.30;;
12908;SDS011;6522;49.622;6.126;2023-07-30T12:20:47;12.50;;;11.70;;
12908;SDS011;6522;49.622;6.126;2023-07-30T12:23:34;14.20;;;13.50;;
12908;SDS011;6522;49.622;6.126;2023-07-30T12:26:21;11.90;;;11.00;;
12908;SDS011;6522;49.622;6.126;2023-07-30T12:29:08;11.93;;;11.23;;
12908;SDS011;6522;49.622;6.126;2023-07-30T12:31:55;15.30;;;14.23;;
12908;SDS011;6522;49.622;6.126;2023-07-30T12:34:42;12.98;;;12.07;;
12908;SDS011;6522;49.622;6.126;2023-07-30T12:37:28;15.10;;;14.10;;
12908;SDS011;6522;49.622;6.126;2023-07-30T12:40:15;13.38;;;12.57;;
12908;SDS011;6522;49.622;6.126;2023-07-30T12:43:02;15.00;;;14.30;;
12908;SDS011;6522;49.622;6.126;2023-07-30T12:45:49;12.90;;;12.00;;
12908;SDS011;6522;49.622;6.126;2023-07-30T12:48:35;15.23;;;14.13;;
12908;SDS011;6522;49.622;6.126;2023-07-30T12:51:22;13.00;;;12.00;;
12908;SDS011;6522;49.622;6.126;2023-07-30T12:54:09;12.60;;;11.90;;
12908;SDS011;6522;49.622;6.126;2023-07-30T12:56:56;15.80;;;14.80;;
12908;SDS011;6522;49.622;6.126;2023-07-30T12:59:43;13.00;;;12.10;;
12908;SDS011;6522;49.622;6.126;2023-07-30T13:02:29;13.57;;;12.70;;
12908;SDS011;6522;49.622;6.126;2023-07-30T13:05:16;15.83;;;14.93;;
12908;SDS011;6522;49.622;6.126;2023-07-30T13:08:03;12.98;;;12.20;;
12908;SDS011;6522;49.622;6.126;2023-07-30T13:10:50;12.68;;;11.88;;
12908;SDS011;6522;49.622;6.126;2023-07-30T13:13:37;12.60;;;11.77;;
12908;SDS011;6522;49.622;6.126;2023-07-30T13:16:24;14.90;;;14.20;;
12908;SDS011;6522;49.622;6.126;2023-07-30T13:19:11;13.82;;;12.93;;
12908;SDS011;6522;49.622;6.126;2023-07-30T13:21:57;14.00;;;12.80;;
12908;SDS011;6522;49.622;6.126;2023-07-30T13:24:44;15.87;;;15.07;;
12908;SDS011;6522;49.622;6.126;2023-07-30T13:27:31;13.63;;;12.77;;
12908;SDS011;6522;49.622;6.126;2023-07-30T13:30:17;15.47;;;14.37;;
12908;SDS011;6522;49.622;6.126;2023-07-30T13:33:04;14.50;;;13.40;;
12908;SDS011;6522;49.622;6.126;2023-07-30T13:35:51;16.70;;;15.60;;
12908;SDS011;6522;49.622;6.126;2023-07-30T13:38:37;16.57;;;15.57;;
12908;SDS011;6522;49.622;6.126;2023-07-30T13:41:24;16.10;;;15.30;;
12908;SDS011;6522;49.622;6.126;2023-07-30T13:44:11;16.60;;;15.70;;
12908;SDS011;6522;49.622;6.126;2023-07-30T13:46:58;16.00;;;15.30;;
12908;SDS011;6522;49.622;6.126;2023-07-30T13:49:45;16.20;;;15.40;;
12908;SDS011;6522;49.622;6.126;2023-07-30T13:52:31;16.23;;;15.43;;
12908;SDS011;6522;49.622;6.126;2023-07-30T13:55:18;16.47;;;15.47;;
12908;SDS011;6522;49.622;6.126;2023-07-30T13:58:05;16.40;;;15.40;;
12908;SDS011;6522;49.622;6.126;2023-07-30T14:00:53;14.25;;;13.40;;
12908;SDS011;6522;49.622;6.126;2023-07-30T14:03:39;16.57;;;15.67;;
12908;SDS011;6522;49.622;6.126;2023-07-30T14:06:25;14.82;;;13.82;;
12908;SDS011;6522;49.622;6.126;2023-07-30T14:09:12;16.97;;;15.97;;
12908;SDS011;6522;49.622;6.126;2023-07-30T14:11:59;13.98;;;13.07;;
12908;SDS011;6522;49.622;6.126;2023-07-30T14:14:46;16.00;;;15.20;;
12908;SDS011;6522;49.622;6.126;2023-07-30T14:17:33;16.67;;;15.60;;
12908;SDS011;6522;49.622;6.126;2023-07-30T14:20:20;16.63;;;15.60;;
12908;SDS011;6522;49.622;6.126;2023-07-30T14:23:06;16.40;;;15.50;;
12908;SDS011;6522;49.622;6.126;2023-07-30T14:25:53;16.00;;;15.30;;
12908;SDS011;6522;49.622;6.126;2023-07-30T14:28:41;13.70;;;12.90;;
12908;SDS011;6522;49.622;6.126;2023-07-30T14:31:27;18.43;;;17.27;;
12908;SDS011;6522;49.622;6.126;2023-07-30T14:34:14;14.30;;;13.40;;
12908;SDS011;6522;49.622;6.126;2023-07-30T14:37:01;16.07;;;15.27;;
12908;SDS011;6522;49.622;6.126;2023-07-30T14:39:48;14.20;;;13.40;;
12908;SDS011;6522;49.622;6.126;2023-07-30T14:42:35;16.70;;;15.80;;
12908;SDS011;6522;49.622;6.126;2023-07-30T14:45:21;17.37;;;16.00;;
12908;SDS011;6522;49.622;6.126;2023-07-30T14:48:08;16.30;;;15.60;;
12908;SDS011;6522;49.622;6.126;2023-07-30T14:50:55;16.73;;;15.73;;
12908;SDS011;6522;49.622;6.126;2023-07-30T14:53:41;14.02;;;13.23;;
12908;SDS011;6522;49.622;6.126;2023-07-30T14:56:28;16.77;;;15.73;;
12908;SDS011;6522;49.622;6.126;2023-07-30T14:59:15;14.40;;;13.50;;
12908;SDS011;6522;49.622;6.126;2023-07-30T15:02:02;16.90;;;15.90;;
12908;SDS011;6522;49.622;6.126;2023-07-30T15:04:49;14.65;;;13.55;;
12908;SDS011;6522;49.622;6.126;2023-07-30T15:07:36;14.20;;;13.50;;
12908;SDS011;6522;49.622;6.126;2023-07-30T15:10:23;16.00;;;15.20;;
12908;SDS011;6522;49.622;6.126;2023-07-30T15:13:10;14.40;;;13.60;;
12908;SDS011;6522;49.622;6.126;2023-07-30T15:15:57;17.20;;;16.20;;
12908;SDS011;6522;49.622;6.126;2023-07-30T15:18:43;14.20;;;13.40;;
12908;SDS011;6522;49.622;6.126;2023-07-30T15:21:30;16.73;;;15.93;;
12908;SDS011;6522;49.622;6.126;2023-07-30T15:24:17;17.00;;;16.00;;
12908;SDS011;6522;49.622;6.126;2023-07-30T15:27:03;16.77;;;15.87;;
12908;SDS011;6522;49.622;6.126;2023-07-30T15:29:50;14.70;;;13.90;;
12908;SDS011;6522;49.622;6.126;2023-07-30T15:32:41;16.67;;;15.90;;
12908;SDS011;6522;49.622;6.126;2023-07-30T15:35:27;16.90;;;16.07;;
12908;SDS011;6522;49.622;6.126;2023-07-30T15:38:13;17.30;;;16.30;;
12908;SDS011;6522;49.622;6.126;2023-07-30T15:41:00;17.03;;;16.03;;
12908;SDS011;6522;49.622;6.126;2023-07-30T15:43:48;16.93;;;15.83;;
12908;SDS011;6522;49.622;6.126;2023-07-30T15:46:34;16.30;;;15.50;;
12908;SDS011;6522;49.622;6.126;2023-07-30T15:49:21;14.20;;;13.40;;
12908;SDS011;6522;49.622;6.126;2023-07-30T15:52:08;13.90;;;13.20;;
12908;SDS011;6522;49.622;6.126;2023-07-30T15:54:55;17.17;;;16.07;;
12908;SDS011;6522;49.622;6.126;2023-07-30T15:57:42;13.90;;;13.00;;
12908;SDS011;6522;49.622;6.126;2023-07-30T16:00:28;14.30;;;13.50;;
12908;SDS011;6522;49.622;6.126;2023-07-30T16:03:15;14.75;;;13.73;;
12908;SDS011;6522;49.622;6.126;2023-07-30T16:06:02;16.93;;;16.13;;
12908;SDS011;6522;49.622;6.126;2023-07-30T16:08:48;14.50;;;13.70;;
12908;SDS011;6522;49.622;6.126;2023-07-30T16:11:35;14.73;;;13.73;;
12908;SDS011;6522;49.622;6.126;2023-07-30T16:14:22;17.20;;;16.27;;
12908;SDS011;6522;49.622;6.126;2023-07-30T16:17:09;14.65;;;13.90;;
12908;SDS011;6522;49.622;6.126;2023-07-30T16:19:56;14.40;;;13.60;;
12908;SDS011;6522;49.622;6.126;2023-07-30T16:22:43;17.07;;;16.27;;
12908;SDS011;6522;49.622;6.126;2023-07-30T16:25:29;14.63;;;13.73;;
12908;SDS011;6522;49.622;6.126;2023-07-30T16:28:16;14.20;;;13.40;;
12908;SDS011;6522;49.622;6.126;2023-07-30T16:31:03;16.77;;;16.07;;
12908;SDS011;6522;49.622;6.126;2023-07-30T16:33:50;14.63;;;13.73;;
12908;SDS011;6522;49.622;6.126;2023-07-30T16:36:37;17.30;;;16.37;;
12908;SDS011;6522;49.622;6.126;2023-07-30T16:39:23;14.45;;;13.60;;
12908;SDS011;6522;49.622;6.126;2023-07-30T16:42:10;16.83;;;15.83;;
12908;SDS011;6522;49.622;6.126;2023-07-30T16:44:56;14.50;;;13.70;;
12908;SDS011;6522;49.622;6.126;2023-07-30T16:47:43;17.03;;;16.20;;